sensor_id;sensor_type;location;lat;lon;timestamp;P1;durP1;ratioP1;P2;durP2;ratioP2
32535;SDS011;18974;50.838;4.636;2023-02-01T00:02:02;27.02;;;7.65;;
32535;SDS011;18974;50.838;4.636;2023-02-01T00:04:28;23.85;;;7.10;;
32535;SDS011;18974;50.838;4.636;2023-02-01T00:06:53;32.70;;;8.85;;
32535;SDS011;18974;50.838;4.636;2023-02-01T00:09:19;27.08;;;6.65;;
32535;SDS011;18974;50.838;4.636;2023-02-01T00:11:45;20.92;;;6.90;;
32535;SDS011;18974;50.838;4.636;2023-02-01T00:14:11;31.30;;;6.07;;
32535;SDS011;18974;50.838;4.636;2023-02-01T00:16:37;23.35;;;6.10;;
32535;SDS011;18974;50.838;4.636;2023-02-01T00:19:04;24.55;;;6.28;;
32535;SDS011;18974;50.838;4.636;2023-02-01T00:21:34;26.10;;;7.13;;
32535;SDS011;18974;50.838;4.636;2023-02-01T00:24:00;30.50;;;7.10;;
32535;SDS011;18974;50.838;4.636;2023-02-01T00:26:47;29.05;;;6.45;;
32535;SDS011;18974;50.838;4.636;2023-02-01T00:29:14;26.38;;;7.93;;
32535;SDS011;18974;50.838;4.636;2023-02-01T00:31:42;29.02;;;8.25;;
32535;SDS011;18974;50.838;4.636;2023-02-01T00:34:11;26.63;;;9.48;;
32535;SDS011;18974;50.838;4.636;2023-02-01T00:36:39;31.70;;;9.75;;
32535;SDS011;18974;50.838;4.636;2023-02-01T00:39:05;31.63;;;9.77;;
32535;SDS011;18974;50.838;4.636;2023-02-01T00:41:31;25.15;;;9.48;;
32535;SDS011;18974;50.838;4.636;2023-02-01T00:44:00;35.85;;;10.20;;
32535;SDS011;18974;50.838;4.636;2023-02-01T00:46:26;34.22;;;10.02;;
32535;SDS011;18974;50.838;4.636;2023-02-01T00:48:52;25.23;;;9.60;;
32535;SDS011;18974;50.838;4.636;2023-02-01T00:51:20;32.05;;;11.20;;
32535;SDS011;18974;50.838;4.636;2023-02-01T00:53:48;30.73;;;9.52;;
32535;SDS011;18974;50.838;4.636;2023-02-01T00:56:14;38.20;;;9.90;;
32535;SDS011;18974;50.838;4.636;2023-02-01T00:58:39;31.77;;;9.90;;
32535;SDS011;18974;50.838;4.636;2023-02-01T01:01:13;48.17;;;9.93;;
32535;SDS011;18974;50.838;4.636;2023-02-01T01:03:43;27.90;;;9.60;;
32535;SDS011;18974;50.838;4.636;2023-02-01T01:06:17;30.45;;;9.60;;
32535;SDS011;18974;50.838;4.636;2023-02-01T01:08:47;34.42;;;9.80;;
32535;SDS011;18974;50.838;4.636;2023-02-01T01:11:17;36.88;;;11.02;;
32535;SDS011;18974;50.838;4.636;2023-02-01T01:13:46;27.58;;;8.60;;
32535;SDS011;18974;50.838;4.636;2023-02-01T01:16:12;31.48;;;8.05;;
32535;SDS011;18974;50.838;4.636;2023-02-01T01:18:38;20.15;;;6.38;;
32535;SDS011;18974;50.838;4.636;2023-02-01T01:21:07;23.27;;;7.30;;
32535;SDS011;18974;50.838;4.636;2023-02-01T01:23:34;25.08;;;7.03;;
32535;SDS011;18974;50.838;4.636;2023-02-01T01:26:04;19.25;;;6.05;;
32535;SDS011;18974;50.838;4.636;2023-02-01T01:28:34;24.30;;;6.75;;
32535;SDS011;18974;50.838;4.636;2023-02-01T01:31:00;32.30;;;6.88;;
32535;SDS011;18974;50.838;4.636;2023-02-01T01:33:26;31.83;;;7.03;;
32535;SDS011;18974;50.838;4.636;2023-02-01T01:35:52;21.85;;;6.07;;
32535;SDS011;18974;50.838;4.636;2023-02-01T01:38:17;21.85;;;6.43;;
32535;SDS011;18974;50.838;4.636;2023-02-01T01:40:45;25.55;;;6.03;;
32535;SDS011;18974;50.838;4.636;2023-02-01T01:43:16;28.45;;;7.22;;
32535;SDS011;18974;50.838;4.636;2023-02-01T01:45:44;25.83;;;6.30;;
32535;SDS011;18974;50.838;4.636;2023-02-01T01:48:27;22.80;;;6.20;;
32535;SDS011;18974;50.838;4.636;2023-02-01T01:51:00;22.25;;;5.57;;
32535;SDS011;18974;50.838;4.636;2023-02-01T01:53:37;34.35;;;6.57;;
32535;SDS011;18974;50.838;4.636;2023-02-01T01:56:09;20.02;;;5.80;;
32535;SDS011;18974;50.838;4.636;2023-02-01T01:58:36;26.73;;;5.63;;
32535;SDS011;18974;50.838;4.636;2023-02-01T02:01:02;30.17;;;6.35;;
32535;SDS011;18974;50.838;4.636;2023-02-01T02:03:35;22.23;;;4.55;;
32535;SDS011;18974;50.838;4.636;2023-02-01T02:06:11;23.52;;;6.50;;
32535;SDS011;18974;50.838;4.636;2023-02-01T02:08:46;22.65;;;5.32;;
32535;SDS011;18974;50.838;4.636;2023-02-01T02:11:12;21.52;;;5.25;;
32535;SDS011;18974;50.838;4.636;2023-02-01T02:13:42;27.58;;;5.82;;
32535;SDS011;18974;50.838;4.636;2023-02-01T02:22:37;18.33;;;3.60;;
32535;SDS011;18974;50.838;4.636;2023-02-01T02:36:30;30.38;;;4.35;;
32535;SDS011;18974;50.838;4.636;2023-02-01T02:39:13;19.85;;;3.53;;
32535;SDS011;18974;50.838;4.636;2023-02-01T02:45:16;22.77;;;3.35;;
32535;SDS011;18974;50.838;4.636;2023-02-01T02:48:09;21.60;;;5.45;;
32535;SDS011;18974;50.838;4.636;2023-02-01T02:51:09;28.00;;;5.78;;
32535;SDS011;18974;50.838;4.636;2023-02-01T02:54:08;12.07;;;2.85;;
32535;SDS011;18974;50.838;4.636;2023-02-01T02:57:04;20.65;;;3.38;;
32535;SDS011;18974;50.838;4.636;2023-02-01T02:59:52;25.52;;;4.15;;
32535;SDS011;18974;50.838;4.636;2023-02-01T03:02:37;16.17;;;2.75;;
32535;SDS011;18974;50.838;4.636;2023-02-01T03:05:22;19.33;;;3.67;;
32535;SDS011;18974;50.838;4.636;2023-02-01T03:18:57;24.05;;;3.83;;
32535;SDS011;18974;50.838;4.636;2023-02-01T03:24:09;15.80;;;4.05;;
32535;SDS011;18974;50.838;4.636;2023-02-01T03:26:41;24.38;;;3.50;;
32535;SDS011;18974;50.838;4.636;2023-02-01T03:29:27;19.23;;;3.55;;
32535;SDS011;18974;50.838;4.636;2023-02-01T03:32:00;14.32;;;2.97;;
32535;SDS011;18974;50.838;4.636;2023-02-01T03:34:26;29.23;;;4.57;;
32535;SDS011;18974;50.838;4.636;2023-02-01T03:36:53;19.98;;;4.00;;
32535;SDS011;18974;50.838;4.636;2023-02-01T03:39:35;25.90;;;4.07;;
32535;SDS011;18974;50.838;4.636;2023-02-01T03:42:14;19.52;;;3.45;;
32535;SDS011;18974;50.838;4.636;2023-02-01T03:47:52;22.73;;;3.92;;
32535;SDS011;18974;50.838;4.636;2023-02-01T03:50:22;29.48;;;5.00;;
32535;SDS011;18974;50.838;4.636;2023-02-01T03:52:53;30.38;;;3.92;;
32535;SDS011;18974;50.838;4.636;2023-02-01T03:55:23;15.55;;;3.13;;
32535;SDS011;18974;50.838;4.636;2023-02-01T03:58:09;24.00;;;4.55;;
32535;SDS011;18974;50.838;4.636;2023-02-01T04:00:40;26.13;;;4.65;;
32535;SDS011;18974;50.838;4.636;2023-02-01T04:03:09;28.25;;;4.10;;
32535;SDS011;18974;50.838;4.636;2023-02-01T04:05:35;25.05;;;4.32;;
32535;SDS011;18974;50.838;4.636;2023-02-01T04:08:02;23.83;;;4.07;;
32535;SDS011;18974;50.838;4.636;2023-02-01T04:10:30;25.20;;;4.03;;
32535;SDS011;18974;50.838;4.636;2023-02-01T04:12:55;18.55;;;3.00;;
32535;SDS011;18974;50.838;4.636;2023-02-01T04:15:21;25.08;;;3.30;;
32535;SDS011;18974;50.838;4.636;2023-02-01T04:17:47;19.67;;;3.63;;
32535;SDS011;18974;50.838;4.636;2023-02-01T04:20:12;21.77;;;3.85;;
32535;SDS011;18974;50.838;4.636;2023-02-01T04:22:38;31.30;;;4.03;;
32535;SDS011;18974;50.838;4.636;2023-02-01T04:25:04;24.17;;;3.72;;
32535;SDS011;18974;50.838;4.636;2023-02-01T04:27:30;20.20;;;2.90;;
32535;SDS011;18974;50.838;4.636;2023-02-01T04:29:56;24.63;;;3.67;;
32535;SDS011;18974;50.838;4.636;2023-02-01T04:32:22;29.98;;;3.53;;
32535;SDS011;18974;50.838;4.636;2023-02-01T04:34:48;19.65;;;2.75;;
32535;SDS011;18974;50.838;4.636;2023-02-01T04:37:13;29.55;;;4.47;;
32535;SDS011;18974;50.838;4.636;2023-02-01T04:39:39;26.33;;;5.13;;
32535;SDS011;18974;50.838;4.636;2023-02-01T04:42:05;20.48;;;4.22;;
32535;SDS011;18974;50.838;4.636;2023-02-01T04:44:31;26.15;;;3.75;;
32535;SDS011;18974;50.838;4.636;2023-02-01T04:46:57;27.77;;;3.22;;
32535;SDS011;18974;50.838;4.636;2023-02-01T04:49:23;26.65;;;4.10;;
32535;SDS011;18974;50.838;4.636;2023-02-01T04:51:51;32.95;;;3.88;;
32535;SDS011;18974;50.838;4.636;2023-02-01T04:54:16;25.42;;;5.78;;
32535;SDS011;18974;50.838;4.636;2023-02-01T04:56:42;27.08;;;3.97;;
32535;SDS011;18974;50.838;4.636;2023-02-01T04:59:09;20.70;;;3.60;;
32535;SDS011;18974;50.838;4.636;2023-02-01T05:01:36;20.77;;;3.55;;
32535;SDS011;18974;50.838;4.636;2023-02-01T05:04:02;21.85;;;3.67;;
32535;SDS011;18974;50.838;4.636;2023-02-01T05:06:27;24.13;;;4.88;;
32535;SDS011;18974;50.838;4.636;2023-02-01T05:08:53;20.98;;;4.13;;
32535;SDS011;18974;50.838;4.636;2023-02-01T05:11:19;29.88;;;3.78;;
32535;SDS011;18974;50.838;4.636;2023-02-01T05:14:03;17.90;;;3.13;;
32535;SDS011;18974;50.838;4.636;2023-02-01T05:16:28;36.70;;;4.63;;
32535;SDS011;18974;50.838;4.636;2023-02-01T05:18:56;24.70;;;3.60;;
32535;SDS011;18974;50.838;4.636;2023-02-01T05:21:22;21.65;;;3.72;;
32535;SDS011;18974;50.838;4.636;2023-02-01T05:23:48;27.83;;;3.85;;
32535;SDS011;18974;50.838;4.636;2023-02-01T05:26:32;29.17;;;3.78;;
32535;SDS011;18974;50.838;4.636;2023-02-01T05:28:57;28.35;;;4.50;;
32535;SDS011;18974;50.838;4.636;2023-02-01T05:31:25;35.58;;;3.72;;
32535;SDS011;18974;50.838;4.636;2023-02-01T05:33:51;20.25;;;3.45;;
32535;SDS011;18974;50.838;4.636;2023-02-01T05:36:17;18.02;;;3.05;;
32535;SDS011;18974;50.838;4.636;2023-02-01T05:38:43;16.98;;;2.88;;
32535;SDS011;18974;50.838;4.636;2023-02-01T05:41:09;21.75;;;3.15;;
32535;SDS011;18974;50.838;4.636;2023-02-01T05:43:34;27.70;;;3.35;;
32535;SDS011;18974;50.838;4.636;2023-02-01T05:46:00;21.38;;;3.22;;
32535;SDS011;18974;50.838;4.636;2023-02-01T05:48:26;23.75;;;3.45;;
32535;SDS011;18974;50.838;4.636;2023-02-01T05:50:51;22.90;;;3.63;;
32535;SDS011;18974;50.838;4.636;2023-02-01T05:53:17;21.05;;;3.72;;
32535;SDS011;18974;50.838;4.636;2023-02-01T05:55:45;22.48;;;3.05;;
32535;SDS011;18974;50.838;4.636;2023-02-01T05:58:10;25.42;;;3.25;;
32535;SDS011;18974;50.838;4.636;2023-02-01T06:00:37;31.05;;;4.28;;
32535;SDS011;18974;50.838;4.636;2023-02-01T06:03:03;20.73;;;3.38;;
32535;SDS011;18974;50.838;4.636;2023-02-01T06:05:28;22.80;;;4.18;;
32535;SDS011;18974;50.838;4.636;2023-02-01T06:07:54;28.50;;;3.60;;
32535;SDS011;18974;50.838;4.636;2023-02-01T06:10:20;25.75;;;4.45;;
32535;SDS011;18974;50.838;4.636;2023-02-01T06:12:46;28.80;;;3.88;;
32535;SDS011;18974;50.838;4.636;2023-02-01T06:15:12;18.00;;;3.53;;
32535;SDS011;18974;50.838;4.636;2023-02-01T06:17:40;35.85;;;4.85;;
32535;SDS011;18974;50.838;4.636;2023-02-01T06:20:08;25.45;;;3.63;;
32535;SDS011;18974;50.838;4.636;2023-02-01T06:22:34;22.65;;;3.83;;
32535;SDS011;18974;50.838;4.636;2023-02-01T06:25:03;30.27;;;4.88;;
32535;SDS011;18974;50.838;4.636;2023-02-01T06:27:30;27.58;;;3.63;;
32535;SDS011;18974;50.838;4.636;2023-02-01T06:29:55;27.48;;;4.20;;
32535;SDS011;18974;50.838;4.636;2023-02-01T06:32:21;27.02;;;4.03;;
32535;SDS011;18974;50.838;4.636;2023-02-01T06:34:47;22.08;;;3.65;;
32535;SDS011;18974;50.838;4.636;2023-02-01T06:37:13;24.90;;;3.10;;
32535;SDS011;18974;50.838;4.636;2023-02-01T06:39:39;21.00;;;3.00;;
32535;SDS011;18974;50.838;4.636;2023-02-01T06:42:04;19.27;;;3.75;;
32535;SDS011;18974;50.838;4.636;2023-02-01T06:44:32;21.60;;;3.00;;
32535;SDS011;18974;50.838;4.636;2023-02-01T06:46:58;27.92;;;3.55;;
32535;SDS011;18974;50.838;4.636;2023-02-01T06:49:23;21.05;;;3.33;;
32535;SDS011;18974;50.838;4.636;2023-02-01T06:51:49;23.75;;;3.80;;
32535;SDS011;18974;50.838;4.636;2023-02-01T06:54:14;20.90;;;3.75;;
32535;SDS011;18974;50.838;4.636;2023-02-01T06:56:40;24.17;;;3.42;;
32535;SDS011;18974;50.838;4.636;2023-02-01T06:59:07;26.27;;;4.05;;
32535;SDS011;18974;50.838;4.636;2023-02-01T07:01:33;21.88;;;4.10;;
32535;SDS011;18974;50.838;4.636;2023-02-01T07:03:59;35.30;;;4.43;;
32535;SDS011;18974;50.838;4.636;2023-02-01T07:06:25;29.67;;;4.03;;
32535;SDS011;18974;50.838;4.636;2023-02-01T07:08:51;21.05;;;2.75;;
32535;SDS011;18974;50.838;4.636;2023-02-01T07:11:17;27.02;;;4.35;;
32535;SDS011;18974;50.838;4.636;2023-02-01T07:13:44;39.38;;;5.50;;
32535;SDS011;18974;50.838;4.636;2023-02-01T07:16:11;26.30;;;4.72;;
32535;SDS011;18974;50.838;4.636;2023-02-01T07:18:38;22.67;;;3.28;;
32535;SDS011;18974;50.838;4.636;2023-02-01T07:21:07;31.25;;;5.65;;
32535;SDS011;18974;50.838;4.636;2023-02-01T07:23:33;23.92;;;3.45;;
32535;SDS011;18974;50.838;4.636;2023-02-01T07:26:00;22.95;;;3.63;;
32535;SDS011;18974;50.838;4.636;2023-02-01T07:28:28;28.65;;;4.68;;
32535;SDS011;18974;50.838;4.636;2023-02-01T07:31:01;26.60;;;6.50;;
32535;SDS011;18974;50.838;4.636;2023-02-01T07:33:34;18.38;;;4.43;;
32535;SDS011;18974;50.838;4.636;2023-02-01T07:36:00;32.17;;;3.55;;
32535;SDS011;18974;50.838;4.636;2023-02-01T07:38:27;21.67;;;3.63;;
32535;SDS011;18974;50.838;4.636;2023-02-01T07:40:57;34.17;;;4.35;;
32535;SDS011;18974;50.838;4.636;2023-02-01T07:43:27;26.08;;;4.35;;
32535;SDS011;18974;50.838;4.636;2023-02-01T07:45:53;26.75;;;3.95;;
32535;SDS011;18974;50.838;4.636;2023-02-01T07:48:20;23.98;;;3.75;;
32535;SDS011;18974;50.838;4.636;2023-02-01T07:50:47;28.83;;;4.15;;
32535;SDS011;18974;50.838;4.636;2023-02-01T07:53:12;31.02;;;4.90;;
32535;SDS011;18974;50.838;4.636;2023-02-01T07:55:38;22.17;;;3.33;;
32535;SDS011;18974;50.838;4.636;2023-02-01T07:58:04;32.55;;;4.03;;
32535;SDS011;18974;50.838;4.636;2023-02-01T08:00:30;18.50;;;3.53;;
32535;SDS011;18974;50.838;4.636;2023-02-01T08:03:14;19.45;;;4.03;;
32535;SDS011;18974;50.838;4.636;2023-02-01T08:05:40;24.05;;;3.67;;
32535;SDS011;18974;50.838;4.636;2023-02-01T08:08:05;19.00;;;3.45;;
32535;SDS011;18974;50.838;4.636;2023-02-01T08:10:32;23.50;;;3.10;;
32535;SDS011;18974;50.838;4.636;2023-02-01T08:12:58;16.52;;;2.65;;
32535;SDS011;18974;50.838;4.636;2023-02-01T08:15:25;22.23;;;3.80;;
32535;SDS011;18974;50.838;4.636;2023-02-01T08:17:54;27.55;;;4.53;;
32535;SDS011;18974;50.838;4.636;2023-02-01T08:20:20;32.45;;;4.18;;
32535;SDS011;18974;50.838;4.636;2023-02-01T08:22:51;39.08;;;4.75;;
32535;SDS011;18974;50.838;4.636;2023-02-01T08:25:16;22.08;;;3.60;;
32535;SDS011;18974;50.838;4.636;2023-02-01T08:27:42;27.90;;;4.22;;
32535;SDS011;18974;50.838;4.636;2023-02-01T08:30:08;22.98;;;3.95;;
32535;SDS011;18974;50.838;4.636;2023-02-01T08:32:35;16.83;;;3.28;;
32535;SDS011;18974;50.838;4.636;2023-02-01T08:35:01;30.15;;;3.92;;
32535;SDS011;18974;50.838;4.636;2023-02-01T08:37:28;19.25;;;4.13;;
32535;SDS011;18974;50.838;4.636;2023-02-01T08:39:54;22.25;;;4.25;;
32535;SDS011;18974;50.838;4.636;2023-02-01T08:42:19;24.90;;;3.25;;
32535;SDS011;18974;50.838;4.636;2023-02-01T08:45:04;24.08;;;3.90;;
32535;SDS011;18974;50.838;4.636;2023-02-01T08:47:30;26.75;;;4.18;;
32535;SDS011;18974;50.838;4.636;2023-02-01T08:49:56;22.05;;;3.50;;
32535;SDS011;18974;50.838;4.636;2023-02-01T08:52:22;31.38;;;4.60;;
32535;SDS011;18974;50.838;4.636;2023-02-01T08:54:50;30.50;;;4.05;;
32535;SDS011;18974;50.838;4.636;2023-02-01T08:57:15;22.75;;;4.40;;
32535;SDS011;18974;50.838;4.636;2023-02-01T08:59:42;22.67;;;4.05;;
32535;SDS011;18974;50.838;4.636;2023-02-01T09:02:12;21.23;;;3.65;;
32535;SDS011;18974;50.838;4.636;2023-02-01T09:04:39;25.30;;;3.63;;
32535;SDS011;18974;50.838;4.636;2023-02-01T09:07:06;27.52;;;5.03;;
32535;SDS011;18974;50.838;4.636;2023-02-01T09:09:32;23.80;;;4.03;;
32535;SDS011;18974;50.838;4.636;2023-02-01T09:11:58;33.95;;;4.22;;
32535;SDS011;18974;50.838;4.636;2023-02-01T09:14:23;13.57;;;3.17;;
32535;SDS011;18974;50.838;4.636;2023-02-01T09:16:49;17.42;;;3.20;;
32535;SDS011;18974;50.838;4.636;2023-02-01T09:19:14;23.48;;;3.60;;
32535;SDS011;18974;50.838;4.636;2023-02-01T09:21:40;28.67;;;4.20;;
32535;SDS011;18974;50.838;4.636;2023-02-01T09:24:06;24.38;;;6.05;;
32535;SDS011;18974;50.838;4.636;2023-02-01T09:26:32;21.08;;;3.97;;
32535;SDS011;18974;50.838;4.636;2023-02-01T09:29:00;19.08;;;3.38;;
32535;SDS011;18974;50.838;4.636;2023-02-01T09:31:26;23.77;;;4.28;;
32535;SDS011;18974;50.838;4.636;2023-02-01T09:33:52;26.27;;;3.33;;
32535;SDS011;18974;50.838;4.636;2023-02-01T09:36:17;20.75;;;3.78;;
32535;SDS011;18974;50.838;4.636;2023-02-01T09:38:46;19.50;;;3.22;;
32535;SDS011;18974;50.838;4.636;2023-02-01T09:44:07;25.48;;;4.07;;
32535;SDS011;18974;50.838;4.636;2023-02-01T09:46:41;32.53;;;4.25;;
32535;SDS011;18974;50.838;4.636;2023-02-01T09:49:12;27.85;;;4.30;;
32535;SDS011;18974;50.838;4.636;2023-02-01T09:51:49;27.38;;;3.63;;
32535;SDS011;18974;50.838;4.636;2023-02-01T09:54:27;18.02;;;4.43;;
32535;SDS011;18974;50.838;4.636;2023-02-01T09:57:08;19.73;;;4.07;;
32535;SDS011;18974;50.838;4.636;2023-02-01T09:59:41;18.15;;;3.50;;
32535;SDS011;18974;50.838;4.636;2023-02-01T10:02:28;24.23;;;4.05;;
32535;SDS011;18974;50.838;4.636;2023-02-01T10:04:57;21.38;;;3.60;;
32535;SDS011;18974;50.838;4.636;2023-02-01T10:07:34;22.48;;;3.88;;
32535;SDS011;18974;50.838;4.636;2023-02-01T10:13:27;34.10;;;4.68;;
32535;SDS011;18974;50.838;4.636;2023-02-01T10:21:30;25.60;;;3.55;;
32535;SDS011;18974;50.838;4.636;2023-02-01T10:26:44;23.13;;;3.47;;
32535;SDS011;18974;50.838;4.636;2023-02-01T10:29:17;20.75;;;3.38;;
32535;SDS011;18974;50.838;4.636;2023-02-01T10:31:47;22.83;;;3.35;;
32535;SDS011;18974;50.838;4.636;2023-02-01T10:34:25;15.25;;;5.03;;
32535;SDS011;18974;50.838;4.636;2023-02-01T10:37:16;33.03;;;3.67;;
32535;SDS011;18974;50.838;4.636;2023-02-01T10:39:49;21.60;;;3.55;;
32535;SDS011;18974;50.838;4.636;2023-02-01T10:42:22;25.92;;;3.40;;
32535;SDS011;18974;50.838;4.636;2023-02-01T10:44:51;25.15;;;3.80;;
32535;SDS011;18974;50.838;4.636;2023-02-01T10:47:21;19.67;;;3.20;;
32535;SDS011;18974;50.838;4.636;2023-02-01T10:57:59;13.02;;;2.75;;
32535;SDS011;18974;50.838;4.636;2023-02-01T11:00:28;15.55;;;2.97;;
32535;SDS011;18974;50.838;4.636;2023-02-01T11:06:28;22.55;;;3.10;;
32535;SDS011;18974;50.838;4.636;2023-02-01T11:08:56;21.48;;;3.15;;
32535;SDS011;18974;50.838;4.636;2023-02-01T11:11:25;14.93;;;3.20;;
32535;SDS011;18974;50.838;4.636;2023-02-01T11:13:52;22.17;;;3.60;;
32535;SDS011;18974;50.838;4.636;2023-02-01T11:16:28;20.33;;;3.00;;
32535;SDS011;18974;50.838;4.636;2023-02-01T11:18:59;12.65;;;2.28;;
32535;SDS011;18974;50.838;4.636;2023-02-01T11:21:24;12.25;;;2.80;;
32535;SDS011;18974;50.838;4.636;2023-02-01T11:23:51;21.20;;;2.70;;
32535;SDS011;18974;50.838;4.636;2023-02-01T11:26:26;19.45;;;3.58;;
32535;SDS011;18974;50.838;4.636;2023-02-01T11:29:14;18.58;;;4.32;;
32535;SDS011;18974;50.838;4.636;2023-02-01T11:31:42;14.35;;;2.42;;
32535;SDS011;18974;50.838;4.636;2023-02-01T11:34:13;16.95;;;3.00;;
32535;SDS011;18974;50.838;4.636;2023-02-01T11:36:41;23.67;;;3.75;;
32535;SDS011;18974;50.838;4.636;2023-02-01T11:52:49;16.45;;;2.88;;
32535;SDS011;18974;50.838;4.636;2023-02-01T11:58:58;20.75;;;4.03;;
32535;SDS011;18974;50.838;4.636;2023-02-01T12:07:35;13.73;;;2.33;;
32535;SDS011;18974;50.838;4.636;2023-02-01T12:10:15;18.42;;;2.92;;
32535;SDS011;18974;50.838;4.636;2023-02-01T12:12:59;10.20;;;2.10;;
32535;SDS011;18974;50.838;4.636;2023-02-01T12:15:50;13.02;;;2.25;;
32535;SDS011;18974;50.838;4.636;2023-02-01T12:18:40;15.25;;;2.58;;
32535;SDS011;18974;50.838;4.636;2023-02-01T12:24:19;16.58;;;2.80;;
32535;SDS011;18974;50.838;4.636;2023-02-01T12:33:00;14.90;;;2.38;;
32535;SDS011;18974;50.838;4.636;2023-02-01T12:41:16;12.00;;;2.47;;
32535;SDS011;18974;50.838;4.636;2023-02-01T12:43:58;13.43;;;2.45;;
32535;SDS011;18974;50.838;4.636;2023-02-01T12:46:33;12.32;;;2.65;;
32535;SDS011;18974;50.838;4.636;2023-02-01T12:49:13;8.65;;;1.83;;
32535;SDS011;18974;50.838;4.636;2023-02-01T12:51:48;14.40;;;2.88;;
32535;SDS011;18974;50.838;4.636;2023-02-01T12:59:54;11.82;;;2.05;;
32535;SDS011;18974;50.838;4.636;2023-02-01T13:02:44;13.25;;;2.05;;
32535;SDS011;18974;50.838;4.636;2023-02-01T13:05:28;10.50;;;2.05;;
32535;SDS011;18974;50.838;4.636;2023-02-01T13:08:02;8.07;;;1.70;;
32535;SDS011;18974;50.838;4.636;2023-02-01T13:16:23;10.65;;;1.70;;
32535;SDS011;18974;50.838;4.636;2023-02-01T13:18:59;8.93;;;2.28;;
32535;SDS011;18974;50.838;4.636;2023-02-01T13:21:31;13.35;;;2.83;;
32535;SDS011;18974;50.838;4.636;2023-02-01T13:24:00;9.32;;;2.10;;
32535;SDS011;18974;50.838;4.636;2023-02-01T13:26:26;13.73;;;1.55;;
32535;SDS011;18974;50.838;4.636;2023-02-01T13:28:59;11.05;;;2.53;;
32535;SDS011;18974;50.838;4.636;2023-02-01T13:31:33;14.48;;;2.67;;
32535;SDS011;18974;50.838;4.636;2023-02-01T13:37:23;10.45;;;2.17;;
32535;SDS011;18974;50.838;4.636;2023-02-01T13:40:17;10.82;;;1.50;;
32535;SDS011;18974;50.838;4.636;2023-02-01T13:42:54;12.48;;;2.00;;
32535;SDS011;18974;50.838;4.636;2023-02-01T13:45:24;9.32;;;1.70;;
32535;SDS011;18974;50.838;4.636;2023-02-01T13:47:54;12.63;;;2.38;;
32535;SDS011;18974;50.838;4.636;2023-02-01T13:50:30;14.30;;;1.88;;
32535;SDS011;18974;50.838;4.636;2023-02-01T13:53:14;11.95;;;2.03;;
32535;SDS011;18974;50.838;4.636;2023-02-01T13:55:44;12.98;;;2.67;;
32535;SDS011;18974;50.838;4.636;2023-02-01T13:58:21;9.30;;;1.65;;
32535;SDS011;18974;50.838;4.636;2023-02-01T14:04:04;13.93;;;1.60;;
32535;SDS011;18974;50.838;4.636;2023-02-01T14:11:47;9.98;;;2.63;;
32535;SDS011;18974;50.838;4.636;2023-02-01T14:19:22;14.93;;;2.60;;
32535;SDS011;18974;50.838;4.636;2023-02-01T14:21:53;9.50;;;2.03;;
32535;SDS011;18974;50.838;4.636;2023-02-01T14:24:29;6.60;;;1.60;;
32535;SDS011;18974;50.838;4.636;2023-02-01T14:27:01;11.38;;;1.83;;
32535;SDS011;18974;50.838;4.636;2023-02-01T14:29:50;12.50;;;1.98;;
32535;SDS011;18974;50.838;4.636;2023-02-01T14:32:23;13.52;;;2.65;;
32535;SDS011;18974;50.838;4.636;2023-02-01T14:34:55;9.63;;;2.58;;
32535;SDS011;18974;50.838;4.636;2023-02-01T14:37:26;14.88;;;3.15;;
32535;SDS011;18974;50.838;4.636;2023-02-01T14:40:03;9.57;;;2.20;;
32535;SDS011;18974;50.838;4.636;2023-02-01T14:42:52;10.10;;;2.00;;
32535;SDS011;18974;50.838;4.636;2023-02-01T14:55:53;10.88;;;1.92;;
32535;SDS011;18974;50.838;4.636;2023-02-01T15:01:38;15.90;;;2.72;;
32535;SDS011;18974;50.838;4.636;2023-02-01T15:04:12;12.73;;;1.80;;
32535;SDS011;18974;50.838;4.636;2023-02-01T15:06:56;14.43;;;2.72;;
32535;SDS011;18974;50.838;4.636;2023-02-01T15:09:27;9.95;;;1.85;;
32535;SDS011;18974;50.838;4.636;2023-02-01T15:12:01;13.45;;;2.08;;
32535;SDS011;18974;50.838;4.636;2023-02-01T15:17:36;13.80;;;2.00;;
32535;SDS011;18974;50.838;4.636;2023-02-01T15:20:38;17.05;;;2.45;;
32535;SDS011;18974;50.838;4.636;2023-02-01T15:23:03;25.58;;;2.42;;
32535;SDS011;18974;50.838;4.636;2023-02-01T15:25:34;12.80;;;2.08;;
32535;SDS011;18974;50.838;4.636;2023-02-01T15:28:03;9.05;;;2.08;;
32535;SDS011;18974;50.838;4.636;2023-02-01T15:30:32;10.95;;;2.72;;
32535;SDS011;18974;50.838;4.636;2023-02-01T15:33:15;15.48;;;3.20;;
32535;SDS011;18974;50.838;4.636;2023-02-01T15:35:43;15.50;;;2.20;;
32535;SDS011;18974;50.838;4.636;2023-02-01T15:38:44;11.70;;;2.10;;
32535;SDS011;18974;50.838;4.636;2023-02-01T15:44:01;17.02;;;2.72;;
32535;SDS011;18974;50.838;4.636;2023-02-01T15:49:01;19.13;;;4.15;;
32535;SDS011;18974;50.838;4.636;2023-02-01T15:51:28;19.15;;;2.70;;
32535;SDS011;18974;50.838;4.636;2023-02-01T15:56:34;12.77;;;2.30;;
32535;SDS011;18974;50.838;4.636;2023-02-01T15:59:06;12.35;;;2.55;;
32535;SDS011;18974;50.838;4.636;2023-02-01T16:01:43;18.02;;;2.40;;
32535;SDS011;18974;50.838;4.636;2023-02-01T16:04:15;17.35;;;3.15;;
32535;SDS011;18974;50.838;4.636;2023-02-01T16:06:50;18.25;;;2.65;;
32535;SDS011;18974;50.838;4.636;2023-02-01T16:09:35;17.67;;;2.90;;
32535;SDS011;18974;50.838;4.636;2023-02-01T16:12:03;20.85;;;2.60;;
32535;SDS011;18974;50.838;4.636;2023-02-01T16:14:44;16.33;;;2.97;;
32535;SDS011;18974;50.838;4.636;2023-02-01T16:17:10;22.23;;;3.53;;
32535;SDS011;18974;50.838;4.636;2023-02-01T16:19:36;19.75;;;3.35;;
32535;SDS011;18974;50.838;4.636;2023-02-01T16:22:04;16.88;;;3.70;;
32535;SDS011;18974;50.838;4.636;2023-02-01T16:24:30;16.30;;;3.05;;
32535;SDS011;18974;50.838;4.636;2023-02-01T16:26:57;14.90;;;3.08;;
32535;SDS011;18974;50.838;4.636;2023-02-01T16:29:23;19.42;;;2.80;;
32535;SDS011;18974;50.838;4.636;2023-02-01T16:31:48;15.32;;;2.67;;
32535;SDS011;18974;50.838;4.636;2023-02-01T16:34:15;14.10;;;3.00;;
32535;SDS011;18974;50.838;4.636;2023-02-01T16:36:42;18.35;;;2.67;;
32535;SDS011;18974;50.838;4.636;2023-02-01T16:39:11;20.98;;;4.00;;
32535;SDS011;18974;50.838;4.636;2023-02-01T16:41:38;19.63;;;3.08;;
32535;SDS011;18974;50.838;4.636;2023-02-01T16:44:04;21.77;;;2.92;;
32535;SDS011;18974;50.838;4.636;2023-02-01T16:46:32;14.05;;;2.25;;
32535;SDS011;18974;50.838;4.636;2023-02-01T16:49:00;22.23;;;3.70;;
32535;SDS011;18974;50.838;4.636;2023-02-01T16:51:28;14.70;;;2.55;;
32535;SDS011;18974;50.838;4.636;2023-02-01T16:53:57;19.25;;;3.00;;
32535;SDS011;18974;50.838;4.636;2023-02-01T16:56:28;12.60;;;2.53;;
32535;SDS011;18974;50.838;4.636;2023-02-01T16:58:56;21.95;;;3.42;;
32535;SDS011;18974;50.838;4.636;2023-02-01T17:01:22;13.95;;;2.75;;
32535;SDS011;18974;50.838;4.636;2023-02-01T17:03:51;10.90;;;2.63;;
32535;SDS011;18974;50.838;4.636;2023-02-01T17:06:20;22.63;;;2.90;;
32535;SDS011;18974;50.838;4.636;2023-02-01T17:08:54;13.57;;;2.65;;
32535;SDS011;18974;50.838;4.636;2023-02-01T17:11:23;14.18;;;2.40;;
32535;SDS011;18974;50.838;4.636;2023-02-01T17:13:48;18.60;;;3.72;;
32535;SDS011;18974;50.838;4.636;2023-02-01T17:18:43;22.05;;;3.33;;
32535;SDS011;18974;50.838;4.636;2023-02-01T17:21:17;18.42;;;3.28;;
32535;SDS011;18974;50.838;4.636;2023-02-01T17:23:42;16.15;;;2.95;;
32535;SDS011;18974;50.838;4.636;2023-02-01T17:26:10;17.88;;;3.53;;
32535;SDS011;18974;50.838;4.636;2023-02-01T17:28:35;19.20;;;3.08;;
32535;SDS011;18974;50.838;4.636;2023-02-01T17:31:01;15.27;;;2.97;;
32535;SDS011;18974;50.838;4.636;2023-02-01T17:33:30;16.77;;;3.47;;